Time;durP1;ratioP1;P1;durP2;ratioP2;P2;SDS_P1;SDS_P2;PMS_P1;PMS_P2;Temp;Humidity;BMP_temperature;BMP_pressure;BME280_temperature;BME280_humidity;BME280_pressure;Samples;Min_cycle;Max_cycle;Signal;HPM_P1;HPM_P2
2023/09/27 00:00:09;;;;;;;16.25;12.45;;;14.80;99.90;;;;;;5009379;28;20046;-78
2023/09/27 00:02:35;;;;;;;14.52;12.85;;;14.80;99.90;;;;;;4990345;28;20125;-78
2023/09/27 00:05:06;;;;;;;18.92;13.38;;;14.80;99.90;;;;;;5006233;28;20053;-78
2023/09/27 00:07:35;;;;;;;20.13;13.70;;;14.80;99.90;;;;;;4990916;28;20090;-79
2023/09/27 00:10:01;;;;;;;18.33;13.48;;;14.80;99.90;;;;;;4997367;28;20056;-78
2023/09/27 00:12:28;;;;;;;16.67;14.18;;;14.90;99.90;;;;;;4992285;28;20056;-78
2023/09/27 00:14:54;;;;;;;16.70;14.13;;;14.80;99.90;;;;;;4996982;28;20057;-78
2023/09/27 00:17:20;;;;;;;18.40;14.32;;;14.90;99.90;;;;;;4990944;28;20046;-78
2023/09/27 00:19:45;;;;;;;17.77;14.07;;;14.80;99.90;;;;;;4991502;28;20460;-78
2023/09/27 00:22:11;;;;;;;18.10;15.13;;;14.90;99.90;;;;;;4988617;28;20052;-78
2023/09/27 00:24:37;;;;;;;18.88;15.45;;;14.90;99.90;;;;;;5003140;28;20042;-77
2023/09/27 00:27:04;;;;;;;20.70;16.08;;;14.90;99.90;;;;;;5012993;28;20517;-78
2023/09/27 00:29:30;;;;;;;23.83;17.17;;;14.90;99.90;;;;;;4996129;28;20060;-78
2023/09/27 00:31:56;;;;;;;19.63;16.55;;;14.90;99.90;;;;;;4997202;28;20545;-78
2023/09/27 00:34:21;;;;;;;22.05;17.77;;;15.00;99.90;;;;;;4992051;28;20409;-81
2023/09/27 00:36:47;;;;;;;21.02;17.10;;;15.00;99.90;;;;;;4995289;28;20046;-78
2023/09/27 00:39:12;;;;;;;21.02;17.13;;;15.00;99.90;;;;;;5013684;28;20324;-78
2023/09/27 00:41:38;;;;;;;22.50;17.60;;;15.00;99.90;;;;;;5007642;28;20049;-78
2023/09/27 00:44:04;;;;;;;21.27;17.67;;;15.00;99.90;;;;;;5012011;28;20048;-78
2023/09/27 00:46:29;;;;;;;22.23;17.77;;;15.00;99.90;;;;;;4994658;28;20038;-78
2023/09/27 00:48:55;;;;;;;22.80;17.35;;;15.00;99.90;;;;;;4990131;28;20042;-77
2023/09/27 00:51:21;;;;;;;20.45;17.48;;;14.90;99.90;;;;;;4987756;28;20169;-78
2023/09/27 00:53:48;;;;;;;21.75;16.85;;;14.90;99.90;;;;;;5012347;28;20073;-78
2023/09/27 00:56:14;;;;;;;22.65;17.95;;;14.90;99.90;;;;;;4995633;28;20045;-78
2023/09/27 00:58:40;;;;;;;24.38;18.02;;;14.90;99.90;;;;;;4995779;28;20553;-78
2023/09/27 01:01:06;;;;;;;22.42;17.83;;;14.90;99.90;;;;;;4987823;28;20216;-78
2023/09/27 01:03:32;;;;;;;24.73;18.75;;;14.90;99.90;;;;;;5008147;28;20100;-79
2023/09/27 01:05:58;;;;;;;23.83;18.05;;;14.90;99.90;;;;;;4995600;28;20409;-79
2023/09/27 01:08:24;;;;;;;23.90;18.85;;;14.90;99.90;;;;;;4995174;28;20040;-79
2023/09/27 01:10:49;;;;;;;23.70;19.48;;;14.90;99.90;;;;;;4982927;28;20034;-79
2023/09/27 01:13:15;;;;;;;25.73;19.73;;;14.90;99.90;;;;;;4995318;28;20461;-78
2023/09/27 01:15:41;;;;;;;25.88;20.33;;;14.90;99.90;;;;;;4988696;28;20049;-78
2023/09/27 01:18:07;;;;;;;23.05;19.45;;;14.90;99.90;;;;;;4987310;28;20041;-78
2023/09/27 01:20:33;;;;;;;23.38;19.02;;;14.90;99.90;;;;;;4992891;28;20077;-78
2023/09/27 01:23:00;;;;;;;23.92;19.08;;;15.40;99.90;;;;;;4984659;28;20065;-77
2023/09/27 01:25:33;;;;;;;25.48;19.58;;;14.90;99.90;;;;;;5009259;28;20465;-78
2023/09/27 01:28:00;;;;;;;23.05;18.40;;;14.90;99.90;;;;;;4993930;28;20042;-78
2023/09/27 01:30:32;;;;;;;22.38;19.02;;;14.90;99.90;;;;;;4978155;28;20041;-79
2023/09/27 01:33:04;;;;;;;23.57;18.87;;;15.00;99.90;;;;;;5010861;28;20072;-78
2023/09/27 01:35:34;;;;;;;19.50;17.13;;;14.90;99.90;;;;;;5010605;28;20041;-78
2023/09/27 01:38:00;;;;;;;21.45;17.92;;;14.90;99.90;;;;;;4986168;28;20068;-78
2023/09/27 01:40:31;;;;;;;22.02;17.95;;;14.80;99.90;;;;;;4987548;28;20062;-78
2023/09/27 01:42:58;;;;;;;21.23;17.23;;;14.80;99.90;;;;;;4993971;28;20034;-78
2023/09/27 01:45:25;;;;;;;21.35;17.88;;;14.80;99.90;;;;;;4991831;28;20285;-78
2023/09/27 01:47:51;;;;;;;20.10;17.00;;;14.70;99.90;;;;;;4993476;28;20033;-78
2023/09/27 01:50:19;;;;;;;22.15;18.10;;;14.70;99.90;;;;;;4993605;28;20514;-78
2023/09/27 01:52:48;;;;;;;21.98;17.42;;;14.70;99.90;;;;;;4992555;28;20049;-78
2023/09/27 01:55:14;;;;;;;23.25;17.40;;;14.70;99.90;;;;;;4977175;28;20049;-78
2023/09/27 01:57:39;;;;;;;24.23;17.48;;;14.70;99.90;;;;;;5010739;28;20049;-78
2023/09/27 02:00:11;;;;;;;20.83;16.98;;;14.60;99.90;;;;;;5009459;28;20042;-79
2023/09/27 02:02:38;;;;;;;21.27;16.35;;;14.60;99.90;;;;;;4990989;28;20463;-78
2023/09/27 02:05:04;;;;;;;19.25;16.23;;;14.50;99.90;;;;;;5008657;28;20041;-78
2023/09/27 02:07:30;;;;;;;23.52;17.48;;;14.50;99.90;;;;;;4992404;28;20088;-78
2023/09/27 02:09:56;;;;;;;20.63;17.08;;;14.50;99.90;;;;;;4995323;28;20128;-78
2023/09/27 02:12:21;;;;;;;19.60;16.98;;;14.50;99.90;;;;;;4995754;28;20129;-77
2023/09/27 02:14:47;;;;;;;21.30;17.27;;;14.40;99.90;;;;;;4993227;28;20401;-78
2023/09/27 02:17:13;;;;;;;19.88;16.40;;;14.40;99.90;;;;;;4993275;28;20049;-78
2023/09/27 02:19:39;;;;;;;22.92;17.58;;;14.40;99.90;;;;;;4993946;28;20042;-78
2023/09/27 02:22:05;;;;;;;21.20;17.52;;;14.40;99.90;;;;;;4993129;28;20042;-78
2023/09/27 02:24:31;;;;;;;25.35;17.23;;;14.30;99.90;;;;;;4988485;28;20034;-78
2023/09/27 02:26:57;;;;;;;22.77;18.70;;;14.30;99.90;;;;;;4989614;28;20103;-78
2023/09/27 02:29:23;;;;;;;24.30;16.42;;;14.30;99.90;;;;;;5009048;28;20046;-78
2023/09/27 02:31:48;;;;;;;21.55;17.65;;;14.30;99.90;;;;;;4993450;28;20045;-78
2023/09/27 02:34:14;;;;;;;23.77;16.92;;;14.30;99.90;;;;;;4992511;28;20519;-79
2023/09/27 02:36:41;;;;;;;19.60;16.10;;;14.20;99.90;;;;;;4991788;28;20053;-78
2023/09/27 02:39:07;;;;;;;19.13;16.95;;;14.20;99.90;;;;;;5009038;28;20050;-77
2023/09/27 02:41:33;;;;;;;20.17;15.73;;;14.20;99.90;;;;;;4988728;28;20057;-78
2023/09/27 02:43:59;;;;;;;19.42;15.68;;;14.10;99.90;;;;;;4994938;28;20385;-78
2023/09/27 02:46:25;;;;;;;20.38;16.50;;;14.10;99.90;;;;;;4993239;28;20121;-78
2023/09/27 02:48:50;;;;;;;20.20;16.25;;;14.00;99.90;;;;;;4987002;28;20038;-77
2023/09/27 02:51:16;;;;;;;20.05;16.77;;;14.00;99.90;;;;;;4992347;28;20474;-78
2023/09/27 02:53:43;;;;;;;22.05;17.52;;;14.00;99.90;;;;;;4994449;28;20037;-78
2023/09/27 02:56:09;;;;;;;21.40;16.50;;;14.00;99.90;;;;;;5009520;28;20046;-78
2023/09/27 02:58:34;;;;;;;20.00;16.30;;;14.00;99.90;;;;;;5009351;28;20049;-78
2023/09/27 03:01:00;;;;;;;20.60;17.02;;;14.00;99.90;;;;;;4992533;28;20048;-78
2023/09/27 03:03:27;;;;;;;23.88;16.65;;;13.90;99.90;;;;;;4991913;28;20056;-78
2023/09/27 03:05:53;;;;;;;20.30;16.52;;;13.90;99.90;;;;;;4993462;28;20037;-78
2023/09/27 03:08:19;;;;;;;20.30;16.67;;;13.90;99.90;;;;;;5011510;28;20041;-78
2023/09/27 03:10:44;;;;;;;18.75;16.35;;;13.90;99.90;;;;;;4995377;28;20038;-78
2023/09/27 03:13:10;;;;;;;21.10;16.88;;;13.90;99.90;;;;;;5005761;28;20041;-78
2023/09/27 03:15:36;;;;;;;22.02;17.13;;;13.80;99.90;;;;;;4992430;28;20038;-78
2023/09/27 03:18:02;;;;;;;19.60;16.75;;;13.80;99.90;;;;;;4977307;28;20084;-78
2023/09/27 03:20:28;;;;;;;22.33;17.95;;;13.80;99.90;;;;;;4995166;28;20040;-78
2023/09/27 03:22:54;;;;;;;20.05;17.58;;;13.80;99.90;;;;;;4990800;28;20129;-78
2023/09/27 03:25:19;;;;;;;24.70;19.10;;;13.80;99.90;;;;;;4987405;28;20409;-77
2023/09/27 03:27:46;;;;;;;22.13;18.00;;;13.80;99.90;;;;;;4991040;28;20126;-78
2023/09/27 03:30:11;;;;;;;21.83;19.02;;;13.80;99.90;;;;;;4988843;28;20041;-78
2023/09/27 03:32:37;;;;;;;21.95;18.92;;;13.80;99.90;;;;;;4986149;28;20060;-78
2023/09/27 03:35:03;;;;;;;24.20;20.30;;;13.80;99.90;;;;;;4978219;28;20126;-78
2023/09/27 03:37:30;;;;;;;24.50;19.27;;;13.80;99.90;;;;;;4989477;28;20046;-78
2023/09/27 03:39:56;;;;;;;23.30;19.67;;;13.80;99.90;;;;;;4985064;28;20051;-78
2023/09/27 03:42:22;;;;;;;21.30;18.58;;;13.80;99.90;;;;;;4989538;28;20053;-78
2023/09/27 03:44:51;;;;;;;26.42;19.08;;;13.70;99.90;;;;;;4987856;28;20034;-78
2023/09/27 03:47:17;;;;;;;22.95;19.20;;;13.70;99.90;;;;;;4983678;28;20097;-77
2023/09/27 03:49:42;;;;;;;23.88;19.20;;;13.70;99.90;;;;;;4993029;28;20081;-78
2023/09/27 03:52:08;;;;;;;24.77;19.45;;;13.70;99.90;;;;;;4989487;28;20047;-78
2023/09/27 03:54:34;;;;;;;21.70;18.38;;;13.70;99.90;;;;;;4993184;28;20105;-78
2023/09/27 03:56:59;;;;;;;22.55;18.00;;;13.70;99.90;;;;;;4993759;28;20045;-78
2023/09/27 03:59:25;;;;;;;22.88;19.35;;;13.70;99.90;;;;;;4986457;28;20125;-78
2023/09/27 04:01:51;;;;;;;26.38;19.70;;;13.70;99.90;;;;;;4989677;28;20046;-78
2023/09/27 04:04:17;;;;;;;23.58;18.45;;;13.70;99.90;;;;;;4988895;28;20074;-77
2023/09/27 04:06:43;;;;;;;25.20;19.10;;;13.60;99.90;;;;;;4986052;28;20038;-78
2023/09/27 04:09:09;;;;;;;23.00;18.50;;;13.60;99.90;;;;;;4989457;28;20121;-77
2023/09/27 04:11:36;;;;;;;23.08;18.85;;;13.60;99.90;;;;;;4983908;28;20490;-78
2023/09/27 04:14:02;;;;;;;25.63;19.25;;;13.60;99.90;;;;;;4986493;28;20046;-78
2023/09/27 04:16:30;;;;;;;23.08;18.33;;;13.60;99.90;;;;;;5003236;28;20107;-78
2023/09/27 04:18:57;;;;;;;24.23;18.60;;;13.60;99.90;;;;;;4993387;28;20041;-78
2023/09/27 04:21:23;;;;;;;22.40;19.25;;;13.60;99.90;;;;;;4988546;28;20088;-78
2023/09/27 04:23:56;;;;;;;21.90;17.10;;;13.60;99.90;;;;;;4989467;28;20375;-78
2023/09/27 04:26:23;;;;;;;21.75;16.35;;;13.60;99.90;;;;;;5025370;23;20049;-76
2023/09/27 04:28:52;;;;;;;21.05;17.10;;;13.50;99.90;;;;;;5010183;28;20129;-77
2023/09/27 04:31:19;;;;;;;23.63;18.30;;;13.50;99.90;;;;;;5033143;28;20037;-76
2023/09/27 04:33:47;;;;;;;21.95;19.10;;;13.50;99.90;;;;;;5017372;28;20045;-76
2023/09/27 04:36:17;;;;;;;24.98;20.23;;;13.50;99.90;;;;;;5047937;28;20041;-76
2023/09/27 04:38:45;;;;;;;22.45;18.52;;;13.50;99.90;;;;;;4989488;28;20042;-76
2023/09/27 04:41:14;;;;;;;22.75;19.10;;;13.50;99.90;;;;;;5004042;28;20041;-79
2023/09/27 04:43:42;;;;;;;23.48;18.63;;;13.40;99.90;;;;;;4993843;28;20096;-75
2023/09/27 04:46:11;;;;;;;24.83;18.20;;;13.40;99.90;;;;;;4984225;28;20401;-78
2023/09/27 04:48:37;;;;;;;21.95;17.58;;;13.70;99.90;;;;;;5004799;28;20050;-78
2023/09/27 04:51:06;;;;;;;19.70;17.00;;;13.40;99.90;;;;;;4989197;28;20044;-78
2023/09/27 04:53:37;;;;;;;24.50;18.65;;;13.40;99.90;;;;;;5013403;28;20088;-78
2023/09/27 04:56:13;;;;;;;21.98;19.00;;;14.00;99.90;;;;;;4996020;28;20029;-78
2023/09/27 04:58:40;;;;;;;23.35;19.25;;;13.30;99.90;;;;;;4991036;28;20048;-78
2023/09/27 05:01:09;;;;;;;25.35;19.60;;;13.30;99.90;;;;;;4989389;28;20038;-78
2023/09/27 05:03:35;;;;;;;23.13;18.25;;;13.30;99.90;;;;;;4993747;28;20065;-79
2023/09/27 05:06:02;;;;;;;23.13;18.38;;;13.30;99.90;;;;;;5005298;28;20067;-78
2023/09/27 05:08:28;;;;;;;21.95;17.65;;;13.30;99.90;;;;;;5019306;28;20041;-78
2023/09/27 05:10:54;;;;;;;23.95;18.20;;;13.70;99.90;;;;;;5033432;28;20036;-78
2023/09/27 05:13:21;;;;;;;24.05;18.13;;;13.50;99.90;;;;;;5016058;28;20033;-77
2023/09/27 05:15:49;;;;;;;21.98;18.30;;;13.20;99.90;;;;;;4999479;28;20481;-78
2023/09/27 05:18:14;;;;;;;22.13;18.17;;;13.20;99.90;;;;;;5020759;28;20266;-78
2023/09/27 05:20:40;;;;;;;26.38;20.60;;;13.20;99.90;;;;;;4998012;28;20095;-77
2023/09/27 05:23:06;;;;;;;27.50;20.42;;;13.20;99.90;;;;;;5011516;28;20481;-77
2023/09/27 05:25:32;;;;;;;23.77;20.05;;;13.30;99.90;;;;;;5031436;28;20045;-77
2023/09/27 05:27:58;;;;;;;29.42;21.65;;;13.50;99.90;;;;;;5006474;28;20044;-77
2023/09/27 05:30:24;;;;;;;27.27;20.88;;;13.30;99.90;;;;;;5000815;28;20112;-77
2023/09/27 05:33:00;;;;;;;26.02;20.45;;;13.30;99.90;;;;;;4994498;28;20108;-77
2023/09/27 05:35:26;;;;;;;29.02;21.92;;;13.30;99.90;;;;;;5014389;28;20049;-77
2023/09/27 05:37:52;;;;;;;29.60;22.33;;;13.30;99.90;;;;;;4993385;28;20045;-77
2023/09/27 05:40:18;;;;;;;27.02;22.23;;;13.30;99.90;;;;;;5003957;28;20057;-78
2023/09/27 05:42:43;;;;;;;29.58;21.75;;;13.30;99.90;;;;;;5023850;28;20409;-78
2023/09/27 05:45:13;;;;;;;31.77;23.27;;;14.00;99.90;;;;;;4998748;28;20045;-77
2023/09/27 05:47:39;;;;;;;27.13;21.73;;;13.40;99.90;;;;;;5028461;28;20040;-77
2023/09/27 05:50:08;;;;;;;30.20;22.15;;;13.40;99.90;;;;;;4998430;28;20189;-77
2023/09/27 05:52:37;;;;;;;30.67;23.23;;;13.50;99.90;;;;;;5004915;28;20102;-78
2023/09/27 05:55:07;;;;;;;29.83;23.30;;;13.50;99.90;;;;;;5014978;28;20047;-78
2023/09/27 05:57:33;;;;;;;34.78;25.02;;;13.50;99.90;;;;;;5032679;28;20041;-77
2023/09/27 06:00:26;;;;;;;31.77;23.35;;;14.20;99.90;;;;;;5003273;28;20049;-77
2023/09/27 06:03:04;;;;;;;30.23;23.48;;;13.60;99.90;;;;;;5015542;28;20037;-77
2023/09/27 06:05:34;;;;;;;29.27;23.13;;;13.70;99.90;;;;;;5008432;28;20482;-77
2023/09/27 06:08:06;;;;;;;31.52;23.60;;;13.60;99.90;;;;;;5029338;28;20041;-76
2023/09/27 06:10:32;;;;;;;28.40;22.83;;;13.60;99.90;;;;;;4993425;28;20037;-77
2023/09/27 06:12:59;;;;;;;29.77;23.23;;;13.90;99.90;;;;;;4998006;28;20037;-77
2023/09/27 06:15:24;;;;;;;31.73;24.23;;;13.70;99.90;;;;;;5028723;28;20091;-76
2023/09/27 06:17:50;;;;;;;30.17;23.95;;;13.70;99.90;;;;;;5017662;28;20045;-76
2023/09/27 06:20:20;;;;;;;30.00;23.42;;;13.70;99.90;;;;;;5009937;28;20038;-76
2023/09/27 06:22:50;;;;;;;32.38;24.02;;;13.70;99.90;;;;;;4998283;28;20095;-77
2023/09/27 06:25:28;;;;;;;32.15;24.05;;;13.80;99.90;;;;;;5006111;28;20045;-76
2023/09/27 06:27:54;;;;;;;29.52;23.58;;;13.80;99.90;;;;;;5014439;28;20045;-76
2023/09/27 06:30:20;;;;;;;32.15;23.98;;;13.80;99.90;;;;;;5008139;28;20084;-77
2023/09/27 06:32:46;;;;;;;28.35;23.25;;;13.80;99.90;;;;;;5018762;28;20037;-76
2023/09/27 06:35:15;;;;;;;29.10;23.35;;;13.80;99.90;;;;;;5004948;28;20052;-76
2023/09/27 06:37:43;;;;;;;28.65;24.02;;;13.80;99.90;;;;;;5014052;28;20038;-77
2023/09/27 06:40:19;;;;;;;29.48;24.25;;;13.90;99.90;;;;;;5005512;28;20152;-76
2023/09/27 06:42:45;;;;;;;32.63;24.83;;;13.90;99.90;;;;;;5014795;28;20438;-77
2023/09/27 06:45:15;;;;;;;31.13;24.67;;;13.90;99.90;;;;;;5003737;28;20124;-76
2023/09/27 06:47:44;;;;;;;33.65;25.65;;;13.90;99.90;;;;;;5019809;28;20144;-76
2023/09/27 06:50:14;;;;;;;34.10;26.20;;;14.00;99.90;;;;;;5007528;28;20042;-76
2023/09/27 06:52:40;;;;;;;33.20;24.45;;;14.00;99.90;;;;;;5003189;28;20053;-76
2023/09/27 06:55:16;;;;;;;33.20;25.52;;;14.10;99.90;;;;;;4996284;28;20049;-76
2023/09/27 06:57:44;;;;;;;29.88;24.60;;;14.20;99.90;;;;;;5003657;28;20077;-76
2023/09/27 07:00:13;;;;;;;30.67;25.80;;;14.20;99.90;;;;;;5027500;28;20155;-76
2023/09/27 07:02:42;;;;;;;31.35;26.23;;;14.30;99.90;;;;;;4989923;28;20489;-76
2023/09/27 07:05:09;;;;;;;32.67;26.35;;;14.40;99.90;;;;;;5000507;28;20033;-76
2023/09/27 07:07:37;;;;;;;32.80;26.40;;;14.70;99.90;;;;;;4985555;28;20486;-76
2023/09/27 07:10:06;;;;;;;36.35;27.23;;;14.50;99.90;;;;;;5000582;28;20096;-77
2023/09/27 07:12:33;;;;;;;32.53;26.90;;;14.50;99.90;;;;;;5000576;28;20041;-76
2023/09/27 07:14:59;;;;;;;32.83;26.48;;;14.60;99.90;;;;;;4998454;28;20040;-76
2023/09/27 07:17:25;;;;;;;32.85;26.30;;;14.90;99.90;;;;;;5000676;28;20440;-76
2023/09/27 07:19:51;;;;;;;35.28;26.30;;;14.80;99.90;;;;;;5013348;28;20038;-76
2023/09/27 07:22:17;;;;;;;32.47;27.10;;;14.70;99.90;;;;;;5003320;28;20065;-77
2023/09/27 07:24:43;;;;;;;29.85;24.85;;;14.70;99.90;;;;;;5024536;28;20033;-77
2023/09/27 07:27:11;;;;;;;32.30;26.33;;;15.00;99.90;;;;;;5007045;28;20428;-77
2023/09/27 07:29:41;;;;;;;35.20;27.50;;;14.80;99.90;;;;;;4992318;28;20082;-77
2023/09/27 07:32:07;;;;;;;33.95;27.65;;;14.80;99.90;;;;;;5009498;28;20069;-77
2023/09/27 07:34:33;;;;;;;31.33;26.77;;;15.20;99.90;;;;;;5007784;28;20092;-77
2023/09/27 07:36:58;;;;;;;34.70;28.05;;;14.90;99.90;;;;;;5021050;28;20034;-77
2023/09/27 07:39:24;;;;;;;34.38;28.52;;;15.20;99.90;;;;;;5008546;28;20103;-76
2023/09/27 07:41:50;;;;;;;37.50;28.33;;;15.40;99.90;;;;;;5002771;28;20125;-76
2023/09/27 07:44:18;;;;;;;33.67;28.45;;;15.10;99.90;;;;;;5012715;28;20041;-76
2023/09/27 07:46:44;;;;;;;34.00;28.95;;;15.00;99.90;;;;;;5021526;28;20033;-77
2023/09/27 07:49:10;;;;;;;35.13;29.77;;;15.10;99.90;;;;;;5011787;28;20544;-77
2023/09/27 07:51:47;;;;;;;36.20;28.42;;;15.10;99.90;;;;;;5011104;28;20072;-77
2023/09/27 07:54:12;;;;;;;39.42;30.20;;;15.10;99.90;;;;;;4994739;28;20057;-76
2023/09/27 07:56:39;;;;;;;37.03;28.23;;;15.10;99.90;;;;;;5010014;28;20038;-76
2023/09/27 07:59:06;;;;;;;35.55;29.40;;;15.20;99.90;;;;;;5025374;28;20493;-76
2023/09/27 08:01:33;;;;;;;35.15;28.42;;;15.20;99.90;;;;;;4984074;28;20081;-76
2023/09/27 08:04:05;;;;;;;35.72;28.73;;;15.20;99.90;;;;;;4992076;28;20038;-77
2023/09/27 08:06:33;;;;;;;36.35;28.50;;;15.20;99.90;;;;;;4994583;28;20328;-77
2023/09/27 08:09:00;;;;;;;44.33;29.80;;;15.20;99.90;;;;;;5024500;28;20375;-76
2023/09/27 08:11:25;;;;;;;37.58;27.65;;;15.70;99.90;;;;;;5026188;28;20092;-77
2023/09/27 08:13:54;;;;;;;37.15;29.50;;;15.30;99.90;;;;;;5002858;28;20038;-77
2023/09/27 08:16:19;;;;;;;41.25;31.92;;;15.30;99.90;;;;;;5022166;28;20041;-76
2023/09/27 08:18:47;;;;;;;35.42;30.05;;;15.40;99.90;;;;;;5017763;28;20045;-77
2023/09/27 08:21:12;;;;;;;37.35;30.90;;;15.50;99.90;;;;;;5000799;28;20073;-77
2023/09/27 08:23:38;;;;;;;42.30;32.50;;;15.60;99.90;;;;;;5006343;28;20038;-77
2023/09/27 08:26:03;;;;;;;36.53;29.55;;;15.60;99.90;;;;;;4994124;28;20044;-76
2023/09/27 08:28:33;;;;;;;40.55;32.13;;;15.60;99.90;;;;;;5002283;28;20096;-76
2023/09/27 08:30:59;;;;;;;44.13;31.67;;;15.70;99.90;;;;;;4997706;28;20516;-76
2023/09/27 08:33:25;;;;;;;41.10;32.92;;;15.70;99.90;;;;;;5022720;28;20076;-77
2023/09/27 08:35:52;;;;;;;39.22;31.92;;;15.80;99.90;;;;;;5018288;28;20042;-76
2023/09/27 08:38:18;;;;;;;37.75;32.53;;;15.80;99.90;;;;;;5025904;28;20034;-76
2023/09/27 08:40:47;;;;;;;37.78;32.30;;;15.90;99.90;;;;;;5007992;28;20187;-77
2023/09/27 08:43:15;;;;;;;37.25;31.95;;;16.00;99.90;;;;;;5015631;28;20041;-78
2023/09/27 08:45:41;;;;;;;55.03;32.08;;;16.10;99.90;;;;;;4993774;28;20075;-77
2023/09/27 08:48:12;;;;;;;41.00;30.55;;;16.10;99.90;;;;;;5006928;28;20112;-77
2023/09/27 08:50:38;;;;;;;41.80;32.17;;;16.20;99.90;;;;;;5007027;28;20405;-77
2023/09/27 08:53:06;;;;;;;42.13;33.13;;;16.20;99.90;;;;;;4998563;28;20041;-77
2023/09/27 08:55:33;;;;;;;42.88;34.65;;;16.30;99.90;;;;;;5011570;28;20054;-77
2023/09/27 08:58:00;;;;;;;45.50;34.35;;;16.30;99.90;;;;;;4989050;28;20516;-76
2023/09/27 09:00:26;;;;;;;39.17;32.78;;;16.40;99.90;;;;;;5031802;28;20123;-77
2023/09/27 09:03:00;;;;;;;38.72;31.52;;;16.40;99.90;;;;;;5033653;28;20125;-77
2023/09/27 09:05:28;;;;;;;42.25;32.50;;;16.50;99.90;;;;;;4998839;28;20033;-77
2023/09/27 09:08:00;;;;;;;35.28;30.30;;;16.60;99.90;;;;;;5009134;28;20076;-77
2023/09/27 09:10:28;;;;;;;40.63;31.58;;;16.70;99.90;;;;;;5020914;28;20044;-77
2023/09/27 09:12:54;;;;;;;38.92;32.00;;;16.80;99.90;;;;;;5006359;28;20545;-77
2023/09/27 09:15:36;;;;;;;37.67;30.45;;;16.90;99.90;;;;;;5000472;28;20125;-77
2023/09/27 09:18:16;;;;;;;36.67;29.80;;;17.10;99.90;;;;;;4989494;28;21155;-77
2023/09/27 09:20:59;;;;;;;35.38;29.27;;;17.20;99.90;;;;;;4995523;28;20048;-77
2023/09/27 09:23:31;;;;;;;32.50;28.40;;;17.30;99.90;;;;;;5029792;28;20390;-77
2023/09/27 09:26:00;;;;;;;31.60;27.70;;;17.40;99.90;;;;;;5029999;28;20033;-77
2023/09/27 09:28:27;;;;;;;30.67;26.20;;;17.50;99.90;;;;;;4997584;28;20037;-77
2023/09/27 09:30:55;;;;;;;33.63;25.42;;;17.60;99.90;;;;;;5015488;28;20553;-77
2023/09/27 09:33:36;;;;;;;36.20;25.33;;;17.70;99.90;;;;;;4991388;28;20038;-77
2023/09/27 09:36:05;;;;;;;35.13;24.80;;;18.20;99.90;;;;;;5004986;28;20046;-77
2023/09/27 09:38:34;;;;;;;29.75;23.27;;;17.90;99.90;;;;;;5011423;28;20033;-77
2023/09/27 09:41:01;;;;;;;29.30;24.27;;;18.00;99.90;;;;;;5027402;28;20177;-78
2023/09/27 09:43:35;;;;;;;29.60;23.73;;;18.10;99.90;;;;;;4997579;28;20030;-76
2023/09/27 09:46:08;;;;;;;29.58;23.02;;;18.20;99.90;;;;;;5001515;28;20038;-76
2023/09/27 09:48:35;;;;;;;32.67;22.35;;;18.30;99.90;;;;;;5010135;28;20037;-77
2023/09/27 09:51:08;;;;;;;26.75;22.35;;;18.40;99.90;;;;;;5028459;28;20037;-77
2023/09/27 09:53:40;;;;;;;28.95;21.98;;;18.50;99.90;;;;;;5010032;28;20030;-76
2023/09/27 09:56:08;;;;;;;29.42;23.13;;;19.20;99.90;;;;;;5005150;28;20401;-76
2023/09/27 09:59:03;;;;;;;27.52;21.17;;;19.10;99.90;;;;;;5027002;28;20506;-77
2023/09/27 10:01:37;;;;;;;31.73;21.70;;;19.40;99.90;;;;;;5013805;28;20043;-76
2023/09/27 10:04:05;;;;;;;24.27;21.05;;;19.70;99.90;;;;;;5016718;28;20038;-78
2023/09/27 10:06:33;;;;;;;27.92;20.77;;;19.80;99.90;;;;;;5012419;28;20533;-76
2023/09/27 10:09:01;;;;;;;27.00;20.38;;;19.90;99.90;;;;;;5024624;28;20038;-76
2023/09/27 10:11:27;;;;;;;25.90;21.60;;;19.90;99.90;;;;;;5014476;28;20485;-77
2023/09/27 10:13:56;;;;;;;24.63;21.60;;;19.90;99.90;;;;;;4996355;28;20073;-77
2023/09/27 10:16:23;;;;;;;27.58;20.40;;;19.90;99.90;;;;;;5012877;28;20561;-76
2023/09/27 10:18:49;;;;;;;24.50;19.77;;;19.90;99.90;;;;;;5015995;28;20037;-77
2023/09/27 10:21:15;;;;;;;25.23;19.52;;;20.00;99.90;;;;;;5011649;28;20041;-77
2023/09/27 10:23:52;;;;;;;25.60;18.92;;;20.00;99.90;;;;;;5029494;28;20103;-77
2023/09/27 10:29:15;;;;;;;20.65;17.08;;;20.20;99.90;;;;;;5030195;28;20074;-66
2023/09/27 10:32:00;;;;;;;23.92;17.33;;;20.30;99.90;;;;;;5011344;28;20045;-66
2023/09/27 10:34:26;;;;;;;20.40;17.17;;;20.30;99.90;;;;;;5031700;28;20073;-66
2023/09/27 10:36:53;;;;;;;22.08;18.55;;;20.20;99.90;;;;;;5029737;28;20057;-66
2023/09/27 10:39:19;;;;;;;26.75;21.20;;;20.40;99.90;;;;;;5005133;28;20603;-66
2023/09/27 10:41:49;;;;;;;23.90;19.95;;;20.40;99.90;;;;;;5030809;28;20033;-66
2023/09/27 10:44:31;;;;;;;22.58;20.23;;;20.50;99.90;;;;;;5022089;28;20029;-66
2023/09/27 10:46:58;;;;;;;23.60;19.80;;;20.50;99.90;;;;;;5017372;28;20046;-66
2023/09/27 10:49:38;;;;;;;21.10;17.77;;;20.70;99.90;;;;;;4998151;28;20037;-66
2023/09/27 10:52:26;;;;;;;21.80;19.08;;;20.80;99.90;;;;;;5000035;28;20048;-66
2023/09/27 10:54:51;;;;;;;21.30;19.00;;;21.00;99.90;;;;;;5021792;28;20059;-66
2023/09/27 10:57:20;;;;;;;26.10;19.67;;;21.20;99.90;;;;;;5017484;28;20046;-66
2023/09/27 10:59:49;;;;;;;22.50;19.40;;;21.30;99.90;;;;;;5013061;28;20046;-66
2023/09/27 11:02:27;;;;;;;23.05;20.55;;;21.40;99.90;;;;;;4997926;28;20049;-66
2023/09/27 11:04:55;;;;;;;21.98;18.33;;;21.40;99.90;;;;;;5026319;28;20044;-66
2023/09/27 11:07:20;;;;;;;26.00;18.77;;;21.40;99.90;;;;;;5028932;28;20034;-66
2023/09/27 11:09:48;;;;;;;25.00;17.58;;;21.30;99.90;;;;;;5030953;28;20388;-66
2023/09/27 11:12:21;;;;;;;19.58;16.85;;;21.30;99.90;;;;;;5022250;28;20060;-66
2023/09/27 11:14:46;;;;;;;20.33;16.95;;;21.30;99.90;;;;;;5003685;28;20042;-66
2023/09/27 11:17:22;;;;;;;20.30;16.75;;;21.20;99.90;;;;;;5022805;28;20033;-66
2023/09/27 11:19:48;;;;;;;20.55;17.13;;;21.20;99.90;;;;;;5017930;28;20506;-66
2023/09/27 11:22:27;;;;;;;22.30;17.73;;;21.20;99.90;;;;;;5034557;28;20041;-66
2023/09/27 11:24:54;;;;;;;22.90;17.80;;;21.20;99.90;;;;;;5016062;28;20179;-66
2023/09/27 11:27:20;;;;;;;22.20;17.63;;;21.10;99.90;;;;;;5022516;28;20153;-66
2023/09/27 11:29:53;;;;;;;20.23;17.40;;;21.20;99.90;;;;;;5032836;28;20474;-66
2023/09/27 11:32:22;;;;;;;26.23;17.67;;;21.30;99.90;;;;;;5026298;28;20041;-66
2023/09/27 11:34:58;;;;;;;20.98;17.52;;;21.40;99.90;;;;;;5001673;28;20046;-66
2023/09/27 11:37:24;;;;;;;21.77;18.25;;;21.50;99.90;;;;;;5033656;28;20106;-66
2023/09/27 11:39:52;;;;;;;21.70;18.02;;;21.60;99.90;;;;;;5030065;28;20096;-66
2023/09/27 11:42:22;;;;;;;21.73;18.02;;;21.50;99.90;;;;;;5030520;28;20069;-66
2023/09/27 11:45:08;;;;;;;19.70;16.23;;;21.40;99.90;;;;;;5025835;28;20492;-66
2023/09/27 11:47:49;;;;;;;20.55;16.13;;;21.40;99.90;;;;;;5000369;28;20037;-66
2023/09/27 11:50:19;;;;;;;19.97;15.60;;;21.30;99.90;;;;;;5013655;28;20046;-66
2023/09/27 11:52:46;;;;;;;19.17;15.00;;;21.30;99.90;;;;;;5016638;28;20056;-66
2023/09/27 11:55:16;;;;;;;20.42;14.90;;;21.20;99.90;;;;;;5013828;28;20573;-66
2023/09/27 11:57:42;;;;;;;18.52;14.98;;;21.20;99.90;;;;;;5020022;28;20042;-66
2023/09/27 12:00:10;;;;;;;18.52;14.55;;;21.20;99.90;;;;;;5034148;28;20038;-66
2023/09/27 12:02:36;;;;;;;19.23;15.73;;;21.20;99.90;;;;;;5011723;28;20037;-66
2023/09/27 12:05:04;;;;;;;19.15;16.13;;;21.20;99.90;;;;;;5037476;28;20498;-66
2023/09/27 12:07:30;;;;;;;17.20;14.90;;;21.10;99.90;;;;;;5031999;28;20454;-66
2023/09/27 12:09:56;;;;;;;20.55;16.60;;;21.10;99.90;;;;;;5018870;28;20399;-66
2023/09/27 12:12:22;;;;;;;19.52;16.50;;;21.20;99.90;;;;;;5039218;28;20045;-66
2023/09/27 12:14:49;;;;;;;22.20;17.92;;;21.20;99.90;;;;;;5039076;28;20030;-66
2023/09/27 12:17:18;;;;;;;21.95;17.73;;;21.40;99.90;;;;;;5023344;28;20045;-66
2023/09/27 12:19:45;;;;;;;19.70;15.50;;;21.50;99.90;;;;;;5035931;28;20078;-66
2023/09/27 12:22:11;;;;;;;21.83;16.48;;;21.70;99.90;;;;;;5033060;28;20044;-66
2023/09/27 12:24:37;;;;;;;22.27;16.58;;;21.80;99.90;;;;;;5016658;28;20108;-66
2023/09/27 12:27:04;;;;;;;19.75;16.92;;;21.80;99.90;;;;;;5015643;28;20041;-66
2023/09/27 12:29:29;;;;;;;16.05;13.23;;;21.90;99.90;;;;;;5016970;28;20045;-66
2023/09/27 12:31:55;;;;;;;16.52;12.23;;;21.80;99.90;;;;;;5035474;28;20114;-66
2023/09/27 12:34:21;;;;;;;17.15;11.55;;;21.80;99.90;;;;;;5026066;28;20043;-66